createdAt,value
2022-11-05T00:02:28.262Z,26.58
2022-11-05T00:05:16.635Z,23.83
2022-11-05T00:08:07.273Z,30.75
2022-11-05T00:10:38.033Z,23.92
2022-11-05T00:13:26.863Z,28.63
2022-11-05T00:16:12.317Z,33.00
2022-11-05T00:18:39.494Z,30.85
2022-11-05T00:21:26.617Z,28.50
2022-11-05T00:24:12.001Z,27.02
2022-11-05T00:26:38.986Z,28.10
2022-11-05T00:29:06.004Z,27.60
2022-11-05T00:31:33.261Z,30.05
2022-11-05T00:34:00.227Z,27.10
2022-11-05T00:36:27.135Z,24.83
2022-11-05T00:38:54.011Z,31.08
2022-11-05T00:41:20.901Z,34.67
2022-11-05T00:44:06.058Z,30.17
2022-11-05T00:46:32.952Z,28.08
2022-11-05T00:49:18.336Z,28.17
2022-11-05T00:51:45.215Z,26.02
2022-11-05T00:54:12.169Z,27.38
2022-11-05T00:56:39.048Z,32.20
2022-11-05T00:59:06.072Z,29.27
2022-11-05T01:01:33.054Z,25.92
2022-11-05T01:04:00.098Z,27.33
2022-11-05T01:06:27.005Z,26.77
2022-11-05T01:08:56.279Z,22.92
2022-11-05T01:11:35.337Z,33.53
2022-11-05T01:14:12.729Z,31.25
2022-11-05T01:16:40.741Z,30.27
2022-11-05T01:19:10.208Z,23.98
2022-11-05T01:21:37.214Z,30.60
2022-11-05T01:24:04.942Z,28.63
2022-11-05T01:26:31.883Z,26.42
2022-11-05T01:29:02.232Z,32.10
2022-11-05T01:31:29.374Z,29.42
2022-11-05T01:33:56.284Z,25.55
2022-11-05T01:36:23.188Z,30.25
2022-11-05T01:38:50.151Z,27.52
2022-11-05T01:41:17.149Z,26.73
2022-11-05T01:43:59.323Z,28.65
2022-11-05T01:46:31.452Z,29.15
2022-11-05T01:49:13.567Z,28.80
2022-11-05T01:51:41.113Z,30.10
2022-11-05T01:54:13.303Z,26.30
2022-11-05T01:56:51.408Z,28.10
2022-11-05T01:59:35.543Z,25.77
2022-11-05T02:02:04.929Z,26.83
2022-11-05T02:04:38.907Z,26.27
2022-11-05T02:07:09.362Z,25.75
2022-11-05T02:09:45.414Z,26.25
2022-11-05T02:12:13.925Z,29.75
2022-11-05T02:14:41.879Z,29.75
2022-11-05T02:17:37.952Z,35.63
2022-11-05T02:20:50.935Z,30.33
2022-11-05T02:23:54.924Z,29.45
2022-11-05T02:26:47.848Z,28.70
2022-11-05T02:30:05.274Z,28.83
2022-11-05T02:33:08.726Z,26.20
2022-11-05T02:36:18.661Z,23.92
2022-11-05T02:39:05.415Z,31.20
2022-11-05T02:41:51.576Z,29.77
2022-11-05T02:45:19.481Z,25.02
2022-11-05T02:48:00.026Z,27.60
2022-11-05T02:51:00.103Z,31.25
2022-11-05T02:53:53.808Z,25.15
2022-11-05T02:56:29.841Z,31.52
2022-11-05T02:58:56.765Z,29.63
2022-11-05T03:01:23.728Z,31.83
2022-11-05T03:04:00.804Z,27.13
2022-11-05T03:07:07.680Z,29.50
2022-11-05T03:09:57.689Z,30.97
2022-11-05T03:12:48.796Z,26.23
2022-11-05T03:15:56.668Z,34.20
2022-11-05T03:18:50.437Z,24.63
2022-11-05T03:21:34.725Z,27.05
2022-11-05T03:24:18.944Z,29.23
2022-11-05T03:27:00.710Z,29.38
2022-11-05T03:29:38.671Z,29.80
2022-11-05T03:32:06.883Z,31.67
2022-11-05T03:35:00.071Z,25.73
2022-11-05T03:37:32.815Z,27.25
2022-11-05T03:40:04.348Z,28.00
2022-11-05T03:42:36.087Z,33.33
2022-11-05T03:45:17.645Z,32.03
2022-11-05T03:47:53.009Z,29.95
2022-11-05T03:50:58.007Z,24.75
2022-11-05T03:53:30.496Z,30.85
2022-11-05T03:56:18.214Z,28.05
2022-11-05T03:58:46.681Z,23.07
2022-11-05T04:01:13.978Z,27.80
2022-11-05T04:03:40.932Z,24.60
2022-11-05T04:06:28.650Z,26.77
2022-11-05T04:09:17.436Z,26.50
2022-11-05T04:12:02.748Z,32.33
2022-11-05T04:14:33.492Z,30.23
2022-11-05T04:17:12.126Z,30.13
2022-11-05T04:20:01.188Z,26.60
2022-11-05T04:22:52.574Z,28.20
2022-11-05T04:25:22.213Z,26.92
2022-11-05T04:27:49.567Z,29.23
2022-11-05T04:30:18.303Z,27.38
2022-11-05T04:33:11.621Z,30.20
2022-11-05T04:35:43.709Z,36.00
2022-11-05T04:38:16.879Z,32.78
2022-11-05T04:40:45.508Z,31.92
2022-11-05T04:43:17.034Z,32.67
2022-11-05T04:45:45.283Z,30.20
2022-11-05T04:48:12.904Z,29.02
2022-11-05T04:50:39.938Z,31.07
2022-11-05T04:53:06.859Z,26.35
2022-11-05T04:55:33.853Z,30.92
2022-11-05T04:58:00.785Z,36.47
2022-11-05T05:00:28.779Z,33.67
2022-11-05T05:02:55.790Z,25.58
2022-11-05T05:05:25.822Z,34.05
2022-11-05T05:07:55.219Z,27.40
2022-11-05T05:10:22.167Z,27.42
2022-11-05T05:12:52.118Z,32.85
2022-11-05T05:15:19.191Z,31.27
2022-11-05T05:17:52.140Z,33.17
2022-11-05T05:20:40.619Z,32.50
2022-11-05T05:23:10.140Z,29.92
2022-11-05T05:25:37.245Z,33.63
2022-11-05T05:28:04.294Z,29.45
2022-11-05T05:30:31.259Z,31.60
2022-11-05T05:33:04.179Z,34.15
2022-11-05T05:35:34.132Z,31.43
2022-11-05T05:38:03.332Z,35.00
2022-11-05T05:40:30.231Z,32.83
2022-11-05T05:42:57.126Z,29.35
2022-11-05T05:45:24.046Z,29.55
2022-11-05T05:47:50.939Z,34.70
2022-11-05T05:50:17.922Z,35.10
2022-11-05T05:52:52.094Z,29.48
2022-11-05T05:55:19.017Z,30.63
2022-11-05T05:57:45.914Z,36.50
2022-11-05T06:00:13.664Z,29.97
2022-11-05T06:02:41.428Z,31.58
2022-11-05T06:05:08.766Z,29.77
2022-11-05T06:07:37.452Z,31.02
2022-11-05T06:10:06.623Z,30.20
2022-11-05T06:12:33.695Z,35.75
2022-11-05T06:15:00.600Z,37.60
2022-11-05T06:17:27.534Z,31.40
2022-11-05T06:19:58.328Z,34.30
2022-11-05T06:22:25.334Z,34.17
2022-11-05T06:24:52.235Z,34.13
2022-11-05T06:27:21.780Z,38.47
2022-11-05T06:29:49.414Z,28.67
2022-11-05T06:32:16.299Z,33.63
2022-11-05T06:34:43.178Z,36.97
2022-11-05T06:37:10.056Z,33.23
2022-11-05T06:39:37.014Z,35.10
2022-11-05T06:42:18.037Z,33.58
2022-11-05T06:44:48.221Z,32.30
2022-11-05T06:47:18.012Z,33.47
2022-11-05T06:49:46.086Z,34.87
2022-11-05T06:52:14.635Z,37.43
2022-11-05T06:54:43.910Z,229.77
2022-11-05T06:57:13.682Z,215.63
2022-11-05T06:59:40.973Z,214.13
2022-11-05T07:02:11.731Z,210.53
2022-11-05T07:04:39.064Z,211.43
2022-11-05T07:07:06.342Z,206.30
2022-11-05T07:09:33.643Z,211.37
2022-11-05T07:12:00.953Z,206.47
2022-11-05T07:14:28.267Z,207.07
2022-11-05T07:16:58.443Z,210.07
2022-11-05T07:19:34.866Z,202.00
2022-11-05T07:22:02.134Z,197.63
2022-11-05T07:24:35.283Z,204.03
2022-11-05T07:27:05.838Z,195.03
2022-11-05T07:29:40.035Z,205.67
2022-11-05T07:32:12.939Z,211.57
2022-11-05T07:34:43.010Z,200.60
2022-11-05T07:37:21.708Z,198.33
2022-11-05T07:39:52.103Z,213.77
2022-11-05T07:42:19.373Z,204.20
2022-11-05T07:44:51.735Z,206.47
2022-11-05T07:47:22.566Z,207.10
2022-11-05T07:49:49.878Z,206.13
2022-11-05T07:52:17.158Z,200.80
2022-11-05T07:54:44.448Z,204.93
2022-11-05T07:57:11.736Z,207.83
2022-11-05T07:59:39.033Z,212.90
2022-11-05T08:02:09.348Z,210.03
2022-11-05T08:04:36.743Z,202.87
2022-11-05T08:07:04.040Z,199.23
2022-11-05T08:09:31.354Z,200.23
2022-11-05T08:12:02.479Z,211.70
2022-11-05T08:14:30.294Z,210.27
2022-11-05T08:16:58.632Z,208.23
2022-11-05T08:19:26.052Z,210.97
2022-11-05T08:21:53.364Z,213.50
2022-11-05T08:24:20.695Z,199.90
2022-11-05T08:26:50.662Z,210.17
2022-11-05T08:29:19.453Z,218.50
2022-11-05T08:31:51.841Z,210.83
2022-11-05T08:34:19.136Z,207.27
2022-11-05T08:36:48.012Z,217.17
2022-11-05T08:39:24.653Z,202.73
2022-11-05T08:41:55.012Z,206.40
2022-11-05T08:47:03.441Z,211.20
2022-11-05T08:49:31.452Z,206.40
2022-11-05T08:52:00.891Z,205.33
2022-11-05T08:54:28.517Z,216.83
2022-11-05T08:56:55.804Z,202.53
2022-11-05T08:59:23.134Z,201.07
2022-11-05T09:01:50.659Z,218.77
2022-11-05T09:04:18.037Z,214.03
2022-11-05T09:06:45.444Z,201.03
2022-11-05T09:09:12.932Z,205.90
2022-11-05T09:12:10.044Z,215.83
2022-11-05T09:14:28.569Z,211.93
2022-11-05T09:16:55.853Z,207.33
2022-11-05T09:19:23.155Z,213.77
2022-11-05T09:21:50.528Z,199.37
2022-11-05T09:24:17.788Z,210.23
2022-11-05T09:26:47.801Z,207.93
2022-11-05T09:29:15.089Z,210.53
2022-11-05T09:31:45.142Z,214.67
2022-11-05T09:34:14.567Z,204.67
2022-11-05T09:36:41.854Z,213.80
2022-11-05T09:39:11.806Z,208.40
2022-11-05T09:41:43.445Z,209.53
2022-11-05T09:44:14.714Z,215.27
2022-11-05T09:46:50.154Z,217.43
2022-11-05T09:49:50.051Z,206.30
2022-11-05T09:52:26.117Z,210.20
2022-11-05T09:54:55.517Z,221.83
2022-11-05T09:57:44.481Z,213.80
2022-11-05T10:00:16.975Z,219.33
2022-11-05T10:03:07.467Z,219.40
2022-11-05T10:05:39.880Z,219.63
2022-11-05T10:08:22.913Z,217.60
2022-11-05T10:10:55.585Z,221.30
2022-11-05T10:13:37.023Z,219.80
2022-11-05T10:16:27.754Z,222.23
2022-11-05T10:19:11.777Z,220.73
2022-11-05T10:22:04.730Z,222.13
2022-11-05T10:24:28.137Z,231.57
2022-11-05T10:26:55.830Z,230.57
2022-11-05T10:29:32.525Z,227.77
2022-11-05T10:32:03.522Z,222.97
2022-11-05T10:34:37.307Z,228.97
2022-11-05T10:37:05.211Z,236.80
2022-11-05T10:39:34.024Z,225.37
2022-11-05T10:42:38.406Z,227.83
2022-11-05T10:45:17.494Z,230.07
2022-11-05T10:48:25.672Z,225.97
2022-11-05T10:50:53.253Z,219.90
2022-11-05T10:53:30.874Z,223.13
2022-11-05T10:56:00.973Z,225.33
2022-11-05T10:58:32.012Z,232.20
2022-11-05T11:00:59.257Z,225.33
2022-11-05T11:03:35.238Z,231.30
2022-11-05T11:06:07.777Z,237.40
2022-11-05T11:08:36.852Z,241.30
2022-11-05T11:11:08.241Z,228.63
2022-11-05T11:14:12.175Z,237.07
2022-11-05T11:16:42.387Z,230.77
2022-11-05T11:19:21.647Z,228.83
2022-11-05T11:22:16.484Z,226.43
2022-11-05T11:24:48.080Z,221.57
2022-11-05T11:27:31.438Z,228.03
2022-11-05T11:30:02.196Z,233.50
2022-11-05T11:32:39.932Z,232.93
2022-11-05T11:35:20.381Z,229.00
2022-11-05T11:37:48.852Z,228.97
2022-11-05T11:40:24.380Z,228.43
2022-11-05T11:42:56.692Z,237.63
2022-11-05T11:45:48.634Z,235.53
2022-11-05T11:48:23.389Z,233.03
2022-11-05T11:50:53.770Z,228.03
2022-11-05T11:53:20.976Z,226.47
2022-11-05T11:56:21.001Z,227.33
2022-11-05T11:58:54.070Z,222.90
2022-11-05T12:02:37.216Z,232.20
2022-11-05T12:05:36.615Z,230.57
2022-11-05T12:08:10.522Z,226.57
2022-11-05T12:10:54.131Z,223.90
2022-11-05T12:13:21.405Z,229.23
2022-11-05T12:16:22.768Z,230.93
2022-11-05T12:19:22.736Z,230.90
2022-11-05T12:22:14.184Z,225.43
2022-11-05T12:25:10.718Z,225.33
2022-11-05T12:27:58.297Z,232.83
2022-11-05T12:30:25.639Z,229.27
2022-11-05T12:33:27.394Z,240.37
2022-11-05T12:36:06.973Z,233.60
2022-11-05T12:38:51.785Z,236.20
2022-11-05T12:42:06.825Z,236.93
2022-11-05T12:45:02.031Z,231.87
2022-11-05T12:47:48.858Z,231.17
2022-11-05T12:50:53.351Z,235.57
2022-11-05T12:53:50.245Z,232.43
2022-11-05T12:56:44.670Z,223.97
2022-11-05T12:59:28.733Z,232.10
2022-11-05T13:02:10.969Z,227.07
2022-11-05T13:04:52.978Z,232.60
2022-11-05T13:07:36.154Z,231.83
2022-11-05T13:10:28.341Z,231.83
2022-11-05T13:13:25.003Z,237.33
2022-11-05T13:16:06.707Z,233.90
2022-11-05T13:18:48.207Z,228.00
2022-11-05T13:21:16.098Z,232.37
2022-11-05T13:23:54.691Z,240.33
2022-11-05T13:26:47.715Z,240.40
2022-11-05T13:29:29.057Z,238.83
2022-11-05T13:32:05.719Z,235.20
2022-11-05T13:34:37.629Z,239.00
2022-11-05T13:37:26.017Z,224.67
2022-11-05T13:39:58.319Z,239.20
2022-11-05T13:42:44.176Z,236.57
2022-11-05T13:45:43.307Z,227.83
2022-11-05T13:49:16.576Z,231.47
2022-11-05T13:52:11.214Z,233.90
2022-11-05T13:54:49.730Z,232.90
2022-11-05T13:58:14.790Z,240.30
2022-11-05T14:01:10.233Z,245.47
2022-11-05T14:03:37.984Z,237.13
2022-11-05T14:06:09.813Z,234.80
2022-11-05T14:08:44.246Z,231.77
2022-11-05T14:11:29.619Z,230.50
2022-11-05T14:14:06.705Z,242.13
2022-11-05T14:17:13.125Z,235.83
2022-11-05T14:20:01.677Z,129.57
2022-11-05T14:22:31.344Z,231.50
2022-11-05T14:24:59.601Z,223.70
2022-11-05T14:27:29.466Z,229.90
2022-11-05T14:29:57.314Z,228.80
2022-11-05T14:32:28.038Z,225.07
2022-11-05T14:34:55.377Z,229.70
2022-11-05T14:37:39.680Z,234.87
2022-11-05T14:40:21.744Z,227.50
2022-11-05T14:42:59.227Z,243.00
2022-11-05T14:45:31.138Z,239.37
2022-11-05T14:48:05.604Z,228.47
2022-11-05T14:50:49.229Z,230.73
2022-11-05T14:53:27.097Z,233.17
2022-11-05T14:56:20.387Z,234.83
2022-11-05T14:58:47.428Z,237.57
2022-11-05T15:01:14.750Z,324.50
2022-11-05T15:03:46.515Z,241.77
2022-11-05T15:06:36.849Z,243.57
2022-11-05T15:09:18.606Z,236.93
2022-11-05T15:12:24.804Z,234.70
2022-11-05T15:15:01.334Z,230.10
2022-11-05T15:17:33.511Z,228.33
2022-11-05T15:20:22.801Z,235.53
2022-11-05T15:22:57.106Z,240.20
2022-11-05T15:25:50.326Z,252.85
2022-11-05T15:28:37.444Z,233.77
2022-11-05T15:31:23.805Z,235.80
2022-11-05T15:34:26.616Z,230.43
2022-11-05T15:37:00.161Z,231.53
2022-11-05T15:39:42.986Z,220.27
2022-11-05T15:42:17.358Z,225.07
2022-11-05T15:44:50.634Z,224.50
2022-11-05T15:47:34.191Z,220.50
2022-11-05T15:50:15.041Z,233.57
2022-11-05T15:53:04.823Z,222.57
2022-11-05T15:55:52.323Z,220.83
2022-11-05T15:58:19.318Z,223.50
2022-11-05T16:00:49.740Z,235.93
2022-11-05T16:03:32.731Z,223.23
2022-11-05T16:06:01.507Z,222.83
2022-11-05T16:08:30.520Z,230.10
2022-11-05T16:11:01.354Z,230.77
2022-11-05T16:13:38.315Z,232.83
2022-11-05T16:16:14.396Z,247.67
2022-11-05T16:18:41.891Z,232.10
2022-11-05T16:21:23.243Z,243.97
2022-11-05T16:23:50.095Z,237.57
2022-11-05T16:27:01.263Z,231.60
2022-11-05T16:29:52.744Z,231.23
2022-11-05T16:32:31.197Z,238.60
2022-11-05T16:35:05.349Z,230.10
2022-11-05T16:37:41.049Z,229.67
2022-11-05T16:40:21.299Z,244.30
2022-11-05T16:42:51.296Z,221.40
2022-11-05T16:45:24.241Z,223.97
2022-11-05T16:47:51.942Z,218.10
2022-11-05T16:50:25.658Z,220.57
2022-11-05T16:52:53.450Z,227.57
2022-11-05T16:55:24.215Z,227.03
2022-11-05T16:57:55.681Z,218.53
2022-11-05T17:00:26.272Z,219.57
2022-11-05T17:02:53.348Z,236.63
2022-11-05T17:05:26.062Z,228.07
2022-11-05T17:07:53.840Z,220.73
2022-11-05T17:10:23.930Z,233.67
2022-11-05T17:12:51.828Z,227.60
2022-11-05T17:15:35.665Z,233.27
2022-11-05T17:18:04.837Z,236.47
2022-11-05T17:20:52.107Z,238.00
2022-11-05T17:23:22.588Z,240.50
2022-11-05T17:25:53.391Z,230.33
2022-11-05T17:28:24.758Z,235.00
2022-11-05T17:30:54.253Z,226.07
2022-11-05T17:33:22.849Z,232.17
2022-11-05T17:35:50.987Z,234.90
2022-11-05T17:38:18.783Z,238.50
2022-11-05T17:40:50.686Z,237.37
2022-11-05T17:43:21.335Z,239.93
2022-11-05T17:45:52.062Z,230.37
2022-11-05T17:48:21.926Z,222.73
2022-11-05T17:50:50.675Z,236.00
2022-11-05T17:53:22.529Z,234.97
2022-11-05T17:55:52.432Z,235.67
2022-11-05T17:58:22.301Z,236.00
2022-11-05T18:00:49.621Z,225.70
2022-11-05T18:03:17.058Z,222.07
2022-11-05T18:05:44.072Z,228.17
2022-11-05T18:08:14.091Z,216.27
2022-11-05T18:10:41.746Z,223.07
2022-11-05T18:13:09.356Z,214.37
2022-11-05T18:15:40.946Z,225.60
2022-11-05T18:18:08.621Z,215.03
2022-11-05T18:20:35.635Z,209.10
2022-11-05T18:23:03.046Z,216.27
2022-11-05T18:25:29.948Z,218.97
2022-11-05T18:27:57.382Z,220.50
2022-11-05T18:30:27.371Z,209.50
2022-11-05T18:32:54.307Z,220.80
2022-11-05T18:35:24.322Z,217.67
2022-11-05T18:37:51.302Z,214.63
2022-11-05T18:40:22.052Z,222.17
2022-11-05T18:42:48.951Z,210.73
2022-11-05T18:45:16.256Z,211.57
2022-11-05T18:47:43.199Z,204.00
2022-11-05T18:50:10.976Z,207.70
2022-11-05T18:52:37.929Z,192.70
2022-11-05T18:55:06.939Z,196.87
2022-11-05T18:57:34.551Z,196.50
2022-11-05T19:00:01.526Z,201.40
2022-11-05T19:02:28.703Z,201.87
2022-11-05T19:05:26.811Z,201.50
2022-11-05T19:07:43.018Z,206.20
2022-11-05T19:10:10.089Z,196.40
2022-11-05T19:12:37.060Z,197.57
2022-11-05T19:15:04.471Z,198.93
2022-11-05T19:17:33.386Z,197.43
2022-11-05T19:20:00.484Z,190.17
2022-11-05T19:22:30.894Z,193.13
2022-11-05T19:24:57.793Z,193.87
2022-11-05T19:27:24.804Z,190.00
2022-11-05T19:29:51.864Z,194.27
2022-11-05T19:32:19.159Z,189.10
2022-11-05T19:34:46.837Z,203.57
2022-11-05T19:37:16.691Z,192.87
2022-11-05T19:39:45.807Z,196.37
2022-11-05T19:42:12.747Z,205.50
2022-11-05T19:44:40.372Z,196.97
2022-11-05T19:47:07.283Z,195.80
2022-11-05T19:49:34.177Z,194.43
2022-11-05T19:52:01.077Z,196.50
2022-11-05T19:54:27.975Z,194.17
2022-11-05T19:56:54.906Z,200.60
2022-11-05T19:59:24.941Z,196.57
2022-11-05T20:01:51.912Z,197.90
2022-11-05T20:04:19.670Z,198.10
2022-11-05T20:06:46.650Z,192.57
2022-11-05T20:09:23.180Z,190.93
2022-11-05T20:11:56.205Z,202.67
2022-11-05T20:14:25.552Z,197.30
2022-11-05T20:16:53.522Z,208.67
2022-11-05T20:19:22.469Z,200.23
2022-11-05T20:21:50.607Z,198.37
2022-11-05T20:24:24.915Z,211.70
2022-11-05T20:26:54.496Z,199.97
2022-11-05T20:29:22.797Z,204.60
2022-11-05T20:31:50.291Z,206.60
2022-11-05T20:34:22.254Z,202.87
2022-11-05T20:36:50.143Z,213.87
2022-11-05T20:39:21.419Z,204.27
2022-11-05T20:41:55.847Z,216.00
2022-11-05T20:44:28.222Z,204.40
2022-11-05T20:46:56.410Z,212.17
2022-11-05T20:49:25.714Z,208.87
2022-11-05T20:51:53.881Z,205.43
2022-11-05T20:54:20.741Z,203.43
2022-11-05T20:56:47.623Z,208.43
2022-11-05T20:59:14.505Z,207.03
2022-11-05T21:01:41.579Z,199.17
2022-11-05T21:04:08.724Z,197.83
2022-11-05T21:06:35.975Z,203.10
2022-11-05T21:09:04.339Z,207.67
2022-11-05T21:11:51.291Z,198.00
2022-11-05T21:14:18.334Z,204.33
2022-11-05T21:16:45.203Z,199.57
2022-11-05T21:19:12.100Z,201.80
2022-11-05T21:21:41.287Z,202.43
2022-11-05T21:24:08.849Z,203.83
2022-11-05T21:26:35.742Z,205.30
2022-11-05T21:29:05.523Z,203.70
2022-11-05T21:31:32.388Z,205.00
2022-11-05T21:34:04.609Z,212.93
2022-11-05T21:36:32.673Z,209.53
2022-11-05T21:38:59.724Z,317.03
2022-11-05T21:41:31.350Z,209.97
2022-11-05T21:44:01.035Z,207.87
2022-11-05T21:46:37.420Z,206.73
2022-11-05T21:49:04.517Z,213.33
2022-11-05T21:51:50.294Z,207.03
2022-11-05T21:54:35.760Z,213.30
2022-11-05T21:57:22.093Z,211.03
2022-11-05T21:59:52.905Z,204.33
2022-11-05T22:02:25.135Z,207.10
2022-11-05T22:04:54.859Z,203.30
2022-11-05T22:07:29.172Z,211.57
2022-11-05T22:09:56.210Z,205.07
2022-11-05T22:12:24.814Z,208.30
2022-11-05T22:14:52.449Z,205.17
2022-11-05T22:17:20.599Z,211.10
2022-11-05T22:19:47.547Z,206.20
2022-11-05T22:22:14.830Z,206.57
2022-11-05T22:24:41.766Z,214.30
2022-11-05T22:27:13.876Z,199.83
2022-11-05T22:29:40.973Z,201.17
2022-11-05T22:32:14.062Z,209.03
2022-11-05T22:34:43.819Z,202.67
2022-11-05T22:37:15.239Z,207.40
2022-11-05T22:39:42.127Z,203.50
2022-11-05T22:42:09.126Z,207.93
2022-11-05T22:44:37.159Z,201.93
2022-11-05T22:47:04.174Z,202.23
2022-11-05T22:49:34.258Z,205.53
2022-11-05T22:52:01.370Z,211.60
2022-11-05T22:54:28.347Z,207.00
2022-11-05T22:56:55.339Z,209.53
2022-11-05T22:59:22.280Z,204.07
2022-11-05T23:01:49.512Z,215.17
2022-11-05T23:04:16.860Z,207.50
2022-11-05T23:07:02.439Z,208.93
2022-11-05T23:09:52.924Z,202.60
2022-11-05T23:12:38.007Z,209.93
2022-11-05T23:15:07.763Z,206.93
2022-11-05T23:18:02.232Z,208.73
2022-11-05T23:20:47.479Z,201.87
2022-11-05T23:23:35.834Z,208.17
2022-11-05T23:26:24.928Z,208.97
2022-11-05T23:28:51.805Z,214.87
2022-11-05T23:31:37.179Z,207.23
2022-11-05T23:34:04.139Z,207.20
2022-11-05T23:36:49.318Z,213.37
2022-11-05T23:39:17.650Z,203.33
2022-11-05T23:42:03.066Z,206.20
2022-11-05T23:44:51.974Z,201.03
2022-11-05T23:47:37.259Z,208.07
2022-11-05T23:50:04.414Z,209.20
2022-11-05T23:52:31.355Z,208.60
2022-11-05T23:54:59.367Z,211.30
2022-11-05T23:57:26.280Z,208.23
2022-11-05T23:59:53.159Z,210.07
